Time;durP1;ratioP1;P1;durP2;ratioP2;P2;SDS_P1;SDS_P2;PMS_P1;PMS_P2;Temp;Humidity;BMP_temperature;BMP_pressure;BME280_temperature;BME280_humidity;BME280_pressure;Samples;Min_cycle;Max_cycle;Signal;HPM_P1;HPM_P2
2022/05/12 00:02:01;;;;;;;12.33;6.00;;;14.30;99.90;;;;;;5134292;27;20236;-62
2022/05/12 00:04:29;;;;;;;11.03;5.57;;;14.30;99.90;;;;;;5134070;27;20200;-61
2022/05/12 00:06:56;;;;;;;11.63;6.10;;;14.30;99.90;;;;;;5133814;27;20250;-61
2022/05/12 00:09:23;;;;;;;6.33;5.10;;;14.30;99.90;;;;;;5134503;27;20251;-62
2022/05/12 00:11:51;;;;;;;8.20;5.83;;;14.30;99.90;;;;;;5133679;27;20262;-61
2022/05/12 00:14:19;;;;;;;10.93;6.10;;;14.30;99.90;;;;;;5134360;27;20651;-61
2022/05/12 00:16:45;;;;;;;18.07;7.13;;;14.30;99.90;;;;;;5134099;27;20632;-62
2022/05/12 00:19:13;;;;;;;15.00;7.67;;;14.30;99.90;;;;;;5133988;27;20205;-61
2022/05/12 00:21:39;;;;;;;12.77;7.87;;;14.30;99.90;;;;;;5134024;27;20228;-62
2022/05/12 00:24:07;;;;;;;14.67;8.30;;;14.30;99.90;;;;;;5133981;27;20205;-61
2022/05/12 00:26:36;;;;;;;13.40;8.23;;;14.30;99.90;;;;;;5133910;27;20214;-61
2022/05/12 00:29:07;;;;;;;19.10;8.77;;;14.30;99.90;;;;;;5134054;27;20613;-63
2022/05/12 00:31:36;;;;;;;14.60;9.33;;;14.20;99.90;;;;;;5134064;27;20282;-62
2022/05/12 00:34:03;;;;;;;13.43;9.23;;;14.20;99.90;;;;;;5133715;27;20267;-60
2022/05/12 00:36:30;;;;;;;17.80;9.70;;;14.20;99.90;;;;;;5133323;27;20295;-63
2022/05/12 00:38:57;;;;;;;15.57;9.63;;;14.10;99.90;;;;;;5133806;27;20656;-62
2022/05/12 00:41:23;;;;;;;18.03;10.07;;;14.20;99.90;;;;;;5133733;27;20270;-62
2022/05/12 00:43:52;;;;;;;16.40;10.23;;;14.10;99.90;;;;;;5133921;27;20232;-62
2022/05/12 00:46:22;;;;;;;13.17;10.10;;;14.10;99.90;;;;;;5133240;27;20271;-62
2022/05/12 00:48:50;;;;;;;14.57;10.07;;;14.10;99.90;;;;;;5133710;27;20265;-61
2022/05/12 00:51:21;;;;;;;16.30;8.77;;;14.10;99.90;;;;;;5133092;27;20224;-62
2022/05/12 00:53:50;;;;;;;15.07;8.60;;;14.10;99.90;;;;;;5133789;27;20282;-62
2022/05/12 00:56:21;;;;;;;13.93;8.67;;;14.00;99.90;;;;;;5133055;27;20206;-62
2022/05/12 00:58:49;;;;;;;15.27;8.00;;;13.90;99.90;;;;;;5133482;27;20666;-62
2022/05/12 01:01:17;;;;;;;13.87;7.80;;;13.80;99.90;;;;;;5133251;27;20589;-62
2022/05/12 01:03:47;;;;;;;14.57;7.87;;;13.60;99.90;;;;;;5133215;27;20287;-61
2022/05/12 01:06:15;;;;;;;12.20;7.33;;;13.60;99.90;;;;;;5133218;27;20204;-62
2022/05/12 01:08:43;;;;;;;13.13;7.33;;;13.60;99.90;;;;;;5133368;27;20198;-62
2022/05/12 01:11:13;;;;;;;13.97;7.40;;;13.50;99.90;;;;;;5132783;27;20236;-62
2022/05/12 01:13:41;;;;;;;12.03;7.57;;;13.50;99.90;;;;;;5132774;27;20254;-62
2022/05/12 01:16:08;;;;;;;10.73;7.27;;;13.40;99.90;;;;;;5132190;27;20217;-62
2022/05/12 01:18:39;;;;;;;12.40;6.87;;;13.20;99.90;;;;;;5133113;27;20203;-62
2022/05/12 01:21:08;;;;;;;12.40;7.60;;;13.00;99.90;;;;;;5133094;27;20635;-62
2022/05/12 01:23:38;;;;;;;10.77;6.40;;;12.90;99.90;;;;;;5132533;27;20658;-62
2022/05/12 01:26:07;;;;;;;12.53;6.30;;;12.80;99.90;;;;;;5132741;27;20233;-62
2022/05/12 01:28:34;;;;;;;11.67;6.57;;;12.80;99.90;;;;;;5132786;27;20202;-62
2022/05/12 01:31:02;;;;;;;15.70;5.90;;;12.70;99.90;;;;;;5132822;27;20223;-62
2022/05/12 01:33:29;;;;;;;8.47;5.80;;;12.60;99.90;;;;;;5133042;27;20219;-62
2022/05/12 01:35:56;;;;;;;8.43;5.07;;;12.50;99.90;;;;;;5132541;27;20260;-62
2022/05/12 01:38:23;;;;;;;9.03;5.07;;;12.40;99.90;;;;;;5132961;27;20207;-62
2022/05/12 01:40:52;;;;;;;7.33;4.90;;;12.30;99.90;;;;;;5132459;27;20601;-62
2022/05/12 01:43:20;;;;;;;10.63;4.67;;;12.20;99.90;;;;;;5132765;27;20574;-62
2022/05/12 01:45:47;;;;;;;13.60;4.63;;;12.20;99.90;;;;;;5132495;27;20202;-62
2022/05/12 01:48:14;;;;;;;7.23;3.77;;;12.10;99.90;;;;;;5132674;27;20207;-63
2022/05/12 01:50:43;;;;;;;6.93;4.20;;;11.90;99.90;;;;;;5132603;27;20227;-62
2022/05/12 01:53:10;;;;;;;7.83;3.70;;;11.80;99.90;;;;;;5132767;27;20211;-62
2022/05/12 01:55:38;;;;;;;8.33;4.40;;;11.70;99.90;;;;;;5132327;27;20214;-62
2022/05/12 01:58:08;;;;;;;8.60;4.10;;;11.70;99.90;;;;;;5132326;27;20210;-62
2022/05/12 02:00:36;;;;;;;6.20;3.70;;;11.60;99.90;;;;;;5132799;27;20290;-61
2022/05/12 02:03:03;;;;;;;6.63;3.80;;;11.50;99.90;;;;;;5132556;27;20309;-61
2022/05/12 02:05:31;;;;;;;9.43;4.77;;;11.50;99.90;;;;;;5132550;27;20195;-62
2022/05/12 02:07:58;;;;;;;7.50;4.17;;;11.40;99.90;;;;;;5132452;27;20281;-62
2022/05/12 02:10:28;;;;;;;10.03;3.47;;;11.30;99.90;;;;;;5132781;27;20212;-62
2022/05/12 02:12:55;;;;;;;4.37;3.50;;;11.40;99.90;;;;;;5133028;27;20597;-61
2022/05/12 02:15:24;;;;;;;6.37;3.70;;;11.30;99.90;;;;;;5132863;27;20225;-62
2022/05/12 02:17:52;;;;;;;8.53;3.80;;;11.30;99.90;;;;;;5132030;27;20335;-62
2022/05/12 02:20:22;;;;;;;9.37;3.60;;;11.30;99.90;;;;;;5132279;27;20239;-62
2022/05/12 02:22:48;;;;;;;5.23;3.87;;;11.30;99.90;;;;;;5132555;27;20202;-62
2022/05/12 02:25:16;;;;;;;7.20;3.80;;;11.20;99.90;;;;;;5132538;27;20202;-62
2022/05/12 02:27:45;;;;;;;7.83;4.17;;;11.20;99.90;;;;;;5136139;27;20228;-62
2022/05/12 02:30:15;;;;;;;6.57;3.70;;;11.20;99.90;;;;;;5136042;27;20667;-63
2022/05/12 02:32:43;;;;;;;9.23;3.90;;;11.20;99.90;;;;;;5136380;27;20210;-61
2022/05/12 02:35:10;;;;;;;6.57;3.73;;;11.20;99.90;;;;;;5135972;27;20278;-62
2022/05/12 02:37:37;;;;;;;6.93;3.87;;;11.20;99.90;;;;;;5135811;27;20205;-62
2022/05/12 02:40:06;;;;;;;7.60;4.27;;;11.10;99.90;;;;;;5136137;27;20311;-62
2022/05/12 02:42:32;;;;;;;7.20;3.83;;;11.10;99.90;;;;;;5136174;27;20302;-62
2022/05/12 02:44:59;;;;;;;6.93;3.90;;;11.10;99.90;;;;;;5135859;27;20668;-62
2022/05/12 02:47:25;;;;;;;7.17;3.87;;;11.10;99.90;;;;;;5135725;27;20212;-61
2022/05/12 02:49:53;;;;;;;6.10;4.10;;;11.10;99.90;;;;;;5135939;27;20203;-62
2022/05/12 02:52:20;;;;;;;7.30;4.00;;;11.00;99.90;;;;;;5135622;27;20642;-62
2022/05/12 02:54:47;;;;;;;7.83;4.57;;;10.90;99.90;;;;;;5135814;27;20226;-62
2022/05/12 02:57:13;;;;;;;6.73;3.63;;;10.90;99.90;;;;;;5135593;27;20202;-62
2022/05/12 02:59:40;;;;;;;6.63;3.60;;;10.80;99.90;;;;;;5136011;27;20263;-62
2022/05/12 03:02:07;;;;;;;6.97;3.80;;;10.70;99.90;;;;;;5135633;27;20226;-62
2022/05/12 03:04:33;;;;;;;5.67;3.50;;;10.70;99.90;;;;;;5135432;27;20728;-62
2022/05/12 03:07:02;;;;;;;9.57;3.73;;;10.60;99.90;;;;;;5135335;27;20288;-62
2022/05/12 03:09:30;;;;;;;5.33;3.57;;;10.50;99.90;;;;;;5135544;27;20204;-62
2022/05/12 03:11:56;;;;;;;7.20;3.30;;;10.50;99.90;;;;;;5135512;27;20237;-61
2022/05/12 03:14:23;;;;;;;8.83;3.37;;;10.50;99.90;;;;;;5135323;27;20576;-62
2022/05/12 03:16:52;;;;;;;9.20;3.20;;;10.50;99.90;;;;;;5135091;27;20201;-62
2022/05/12 03:19:20;;;;;;;7.03;3.07;;;10.50;99.90;;;;;;5135196;27;20209;-62
2022/05/12 03:21:47;;;;;;;7.60;3.30;;;10.50;99.90;;;;;;5135499;27;20266;-60
2022/05/12 03:24:15;;;;;;;5.43;2.97;;;10.50;99.90;;;;;;5135204;27;20288;-62
2022/05/12 03:26:42;;;;;;;5.70;2.80;;;10.40;99.90;;;;;;5135027;27;20201;-62
2022/05/12 03:29:08;;;;;;;7.00;3.60;;;10.40;99.90;;;;;;5135089;27;20205;-61
2022/05/12 03:31:36;;;;;;;8.60;3.30;;;10.40;99.90;;;;;;5135247;27;20226;-60
2022/05/12 03:34:02;;;;;;;8.27;3.20;;;10.40;99.90;;;;;;5135822;27;20229;-62
2022/05/12 03:36:31;;;;;;;9.70;3.13;;;10.30;99.90;;;;;;5134643;27;20205;-63
2022/05/12 03:38:58;;;;;;;7.23;3.47;;;10.40;99.90;;;;;;5134069;27;20211;-62
2022/05/12 03:41:26;;;;;;;7.27;3.30;;;10.30;99.90;;;;;;5134794;27;20231;-61
2022/05/12 03:46:39;;;;;;;4.50;3.20;;;10.20;99.90;;;;;;5115986;27;20250;-61
2022/05/12 03:49:07;;;;;;;8.37;3.73;;;10.10;99.90;;;;;;5134717;27;20213;-62
2022/05/12 03:51:34;;;;;;;5.53;3.53;;;10.20;99.90;;;;;;5134594;27;20312;-61
2022/05/12 03:54:03;;;;;;;7.70;3.47;;;10.20;99.90;;;;;;5134607;27;20727;-61
2022/05/12 03:56:31;;;;;;;7.57;3.47;;;10.20;99.90;;;;;;5134171;27;20200;-62
2022/05/12 03:58:58;;;;;;;6.03;3.07;;;10.20;99.90;;;;;;5134475;27;20264;-62
2022/05/12 04:01:25;;;;;;;9.00;3.80;;;10.20;99.90;;;;;;5134239;27;20256;-60
2022/05/12 04:03:52;;;;;;;7.23;3.70;;;10.20;99.90;;;;;;5134538;27;20206;-61
2022/05/12 04:06:19;;;;;;;8.70;3.53;;;10.20;99.90;;;;;;5133839;27;20674;-62
2022/05/12 04:08:45;;;;;;;8.37;3.77;;;10.20;99.90;;;;;;5134225;27;20212;-62
2022/05/12 04:11:12;;;;;;;7.13;3.87;;;10.10;99.90;;;;;;5134157;27;20232;-61
2022/05/12 04:13:41;;;;;;;6.47;4.10;;;10.10;99.90;;;;;;5134692;27;20267;-63
2022/05/12 04:16:08;;;;;;;7.10;4.37;;;10.20;99.90;;;;;;5134081;27;20277;-62
2022/05/12 04:18:35;;;;;;;10.37;4.97;;;10.20;99.90;;;;;;5134132;27;20217;-62
2022/05/12 04:21:02;;;;;;;10.23;4.87;;;10.20;99.90;;;;;;5134263;27;20221;-61
2022/05/12 04:23:28;;;;;;;9.93;4.97;;;10.20;99.90;;;;;;5133958;27;20209;-62
2022/05/12 04:25:55;;;;;;;7.40;5.03;;;10.20;99.90;;;;;;5133318;27;20199;-62
2022/05/12 04:28:22;;;;;;;13.50;5.13;;;10.30;99.90;;;;;;5134145;27;20261;-61
2022/05/12 04:30:51;;;;;;;8.67;5.10;;;10.30;99.90;;;;;;5133780;27;20238;-62
2022/05/12 04:36:02;;;;;;;9.30;5.10;;;10.30;99.90;;;;;;5133364;27;20853;-62
2022/05/12 04:38:29;;;;;;;13.70;5.80;;;10.40;99.90;;;;;;5133642;27;20258;-62
2022/05/12 04:40:56;;;;;;;8.57;5.50;;;10.40;99.90;;;;;;5132976;27;20234;-62
2022/05/12 04:43:22;;;;;;;11.13;5.87;;;10.40;99.90;;;;;;5133860;27;20300;-61
2022/05/12 04:45:50;;;;;;;8.97;6.13;;;10.50;99.90;;;;;;5131672;27;20205;-64
2022/05/12 04:48:17;;;;;;;9.33;6.13;;;10.50;99.90;;;;;;5132868;27;20258;-61
2022/05/12 04:50:44;;;;;;;9.67;5.97;;;10.50;99.90;;;;;;5133286;27;20632;-62
2022/05/12 04:53:11;;;;;;;14.47;7.13;;;10.60;99.90;;;;;;5133292;27;20216;-62
2022/05/12 04:55:39;;;;;;;13.07;6.97;;;10.60;99.90;;;;;;5133578;27;20220;-61
2022/05/12 04:58:06;;;;;;;14.20;6.63;;;10.70;99.90;;;;;;5132593;27;20206;-62
2022/05/12 05:00:35;;;;;;;12.50;6.40;;;10.70;99.90;;;;;;5133413;27;20650;-61
2022/05/12 05:03:04;;;;;;;10.30;6.77;;;10.70;99.90;;;;;;5133064;27;20573;-61
2022/05/12 05:05:30;;;;;;;18.07;7.57;;;10.80;99.90;;;;;;5133178;27;20210;-62
2022/05/12 05:07:57;;;;;;;9.70;6.87;;;10.80;99.90;;;;;;5132725;27;20206;-61
2022/05/12 05:10:24;;;;;;;11.57;6.63;;;10.80;99.90;;;;;;5132944;27;20281;-62
2022/05/12 05:12:52;;;;;;;13.93;6.77;;;10.90;99.90;;;;;;5132540;27;20676;-63
2022/05/12 05:15:19;;;;;;;12.20;7.17;;;10.90;99.90;;;;;;5132540;27;20241;-63
2022/05/12 05:17:46;;;;;;;14.80;6.80;;;11.00;99.90;;;;;;5132521;27;20221;-62
2022/05/12 05:20:17;;;;;;;11.90;6.73;;;11.00;99.90;;;;;;5132421;27;20202;-64
2022/05/12 05:22:44;;;;;;;17.60;7.40;;;11.00;99.90;;;;;;5132822;27;20735;-64
2022/05/12 05:25:11;;;;;;;15.13;6.93;;;11.00;99.90;;;;;;5132641;27;20258;-62
2022/05/12 05:27:38;;;;;;;12.13;6.83;;;11.10;99.90;;;;;;5132468;27;20203;-63
2022/05/12 05:30:07;;;;;;;11.20;6.63;;;11.20;99.90;;;;;;5132765;27;20211;-63
2022/05/12 05:32:33;;;;;;;13.47;7.17;;;11.20;99.90;;;;;;5132005;27;20241;-63
2022/05/12 05:35:00;;;;;;;10.27;6.10;;;11.30;99.90;;;;;;5132809;27;20270;-63
2022/05/12 05:37:28;;;;;;;10.70;7.40;;;11.30;99.90;;;;;;5132124;27;20231;-63
2022/05/12 05:39:54;;;;;;;13.40;6.97;;;11.40;99.90;;;;;;5132847;27;20219;-63
2022/05/12 05:42:22;;;;;;;11.73;6.90;;;11.40;99.90;;;;;;5132290;27;20279;-63
2022/05/12 05:44:49;;;;;;;11.47;6.57;;;11.40;99.90;;;;;;5132707;27;20322;-62
2022/05/12 05:47:17;;;;;;;11.63;6.13;;;11.50;99.90;;;;;;5131865;27;20236;-62
2022/05/12 05:49:44;;;;;;;14.37;7.23;;;11.60;99.90;;;;;;5132433;27;20689;-61
2022/05/12 05:54:57;;;;;;;13.07;6.37;;;11.60;99.90;;;;;;5111006;28;20245;-62
2022/05/12 05:57:25;;;;;;;11.03;6.13;;;11.80;99.90;;;;;;5112164;28;20564;-62
2022/05/12 05:59:52;;;;;;;11.60;7.27;;;11.90;99.90;;;;;;5131550;27;20203;-63
2022/05/12 06:02:19;;;;;;;16.03;6.80;;;12.00;99.90;;;;;;5135719;27;20644;-59
2022/05/12 06:04:46;;;;;;;13.70;7.63;;;12.00;99.90;;;;;;5135819;27;20202;-63
2022/05/12 06:07:13;;;;;;;11.17;7.00;;;12.10;99.90;;;;;;5135607;27;20203;-62
2022/05/12 06:09:40;;;;;;;12.10;6.43;;;12.20;99.90;;;;;;5136356;27;20283;-62
2022/05/12 06:12:09;;;;;;;11.40;6.80;;;12.30;99.90;;;;;;5135308;27;20242;-61
2022/05/12 06:14:36;;;;;;;10.17;5.87;;;12.30;99.90;;;;;;5135994;27;20364;-60
2022/05/12 06:17:03;;;;;;;10.23;6.53;;;12.40;99.90;;;;;;5135538;27;20619;-62
2022/05/12 06:19:30;;;;;;;10.20;5.87;;;12.40;99.90;;;;;;5135830;27;20203;-61
2022/05/12 06:21:57;;;;;;;11.83;6.30;;;12.50;99.90;;;;;;5136028;27;20369;-64
2022/05/12 06:24:24;;;;;;;13.23;6.43;;;12.60;99.90;;;;;;5135487;27;20260;-64
2022/05/12 06:26:51;;;;;;;10.83;5.93;;;12.70;99.90;;;;;;5134592;27;20693;-65
2022/05/12 06:29:20;;;;;;;12.43;5.93;;;12.70;99.90;;;;;;5135259;27;20218;-63
2022/05/12 06:31:47;;;;;;;12.10;6.50;;;12.90;99.90;;;;;;5135870;27;20231;-63
2022/05/12 06:34:14;;;;;;;6.80;5.30;;;12.90;99.90;;;;;;5135207;27;20249;-64
2022/05/12 06:36:41;;;;;;;13.17;6.47;;;13.00;99.90;;;;;;5134980;27;20253;-62
2022/05/12 06:39:08;;;;;;;10.30;5.20;;;13.10;99.90;;;;;;5135242;27;20214;-62
2022/05/12 06:41:35;;;;;;;11.57;5.80;;;13.30;99.90;;;;;;5135826;27;20371;-63
2022/05/12 06:44:04;;;;;;;10.00;5.90;;;13.40;99.90;;;;;;5135678;27;20672;-63
2022/05/12 06:46:33;;;;;;;10.63;5.93;;;13.40;99.90;;;;;;5134627;27;20660;-63
2022/05/12 06:49:02;;;;;;;8.03;4.90;;;13.50;99.90;;;;;;5135359;27;20209;-62
2022/05/12 06:51:28;;;;;;;8.73;4.70;;;13.60;99.90;;;;;;5135274;27;20315;-60
2022/05/12 06:53:55;;;;;;;9.33;4.90;;;13.70;99.90;;;;;;5134924;27;20731;-61
2022/05/12 06:56:22;;;;;;;9.10;4.67;;;13.70;99.90;;;;;;5134739;27;20220;-62
2022/05/12 06:58:48;;;;;;;8.27;4.90;;;13.70;99.80;;;;;;5134864;27;20209;-62
2022/05/12 07:01:15;;;;;;;10.50;4.70;;;13.80;99.90;;;;;;5135301;27;20222;-63
2022/05/12 07:03:43;;;;;;;8.77;4.77;;;13.90;99.90;;;;;;5135015;27;20214;-62
2022/05/12 07:06:10;;;;;;;6.33;4.10;;;13.90;95.30;;;;;;5134255;27;20200;-62
2022/05/12 07:08:40;;;;;;;8.77;3.80;;;13.80;91.10;;;;;;5135316;27;20203;-63
2022/05/12 07:11:07;;;;;;;7.40;3.70;;;13.80;85.70;;;;;;5134559;27;20267;-63
2022/05/12 07:13:34;;;;;;;8.53;4.20;;;13.80;84.30;;;;;;5133912;27;20210;-63
2022/05/12 07:16:03;;;;;;;9.10;4.70;;;13.80;81.30;;;;;;5133920;27;20228;-62
2022/05/12 07:18:31;;;;;;;10.80;5.30;;;13.80;79.90;;;;;;5134831;27;20206;-62
2022/05/12 07:26:39;;;;;;;7.07;4.10;;;13.80;79.70;;;;;;5134252;27;20227;-63
2022/05/12 07:29:10;;;;;;;6.37;3.97;;;13.80;48.40;;;;;;5134175;27;20294;-61
2022/05/12 07:31:38;;;;;;;6.57;3.83;;;13.90;59.80;;;;;;5134936;27;20320;-62
2022/05/12 07:34:06;;;;;;;15.40;6.60;;;14.10;43.80;;;;;;5134110;27;20203;-62
2022/05/12 07:36:35;;;;;;;8.13;4.03;;;14.30;16.00;;;;;;5134239;27;20225;-61
2022/05/12 07:39:03;;;;;;;8.80;4.40;;;14.50;23.50;;;;;;5134083;27;20259;-62
2022/05/12 07:41:29;;;;;;;6.50;4.30;;;14.70;20.50;;;;;;5134260;27;20708;-61
2022/05/12 07:43:57;;;;;;;6.53;3.40;;;15.10;39.70;;;;;;5134465;27;20221;-63
2022/05/12 07:46:29;;;;;;;12.40;5.27;;;15.40;11.90;;;;;;5133666;27;20248;-62
2022/05/12 07:48:56;;;;;;;9.20;4.00;;;15.60;8.10;;;;;;5134430;27;20199;-62
2022/05/12 07:51:24;;;;;;;6.40;3.60;;;15.70;1.00;;;;;;5134053;27;20227;-65
2022/05/12 07:53:52;;;;;;;7.30;4.00;;;15.80;1.00;;;;;;5134191;27;20211;-62
2022/05/12 07:56:21;;;;;;;10.17;4.00;;;15.80;1.00;;;;;;5132803;27;20695;-61
2022/05/12 07:58:48;;;;;;;4.80;3.57;;;15.90;1.00;;;;;;5134073;27;20232;-64
2022/05/12 08:01:15;;;;;;;7.40;3.60;;;15.90;1.00;;;;;;5134165;27;20628;-63
2022/05/12 08:03:44;;;;;;;9.17;3.70;;;16.10;1.00;;;;;;5133942;27;20203;-63
2022/05/12 08:06:12;;;;;;;6.70;3.40;;;16.30;1.00;;;;;;5133216;27;20211;-63
2022/05/12 08:08:39;;;;;;;6.77;3.90;;;16.30;99.90;;;;;;5133775;27;20265;-63
2022/05/12 08:11:07;;;;;;;5.83;3.40;;;16.40;99.90;;;;;;5133750;27;20298;-64
2022/05/12 08:13:34;;;;;;;11.77;3.53;;;16.40;99.90;;;;;;5134366;27;20222;-63
2022/05/12 08:16:02;;;;;;;8.60;3.67;;;16.50;99.90;;;;;;5132578;27;20310;-63
2022/05/12 08:18:29;;;;;;;7.60;3.20;;;16.70;1.00;;;;;;5133976;27;20206;-63
2022/05/12 08:20:56;;;;;;;5.90;3.23;;;16.70;99.90;;;;;;5133380;27;20222;-60
2022/05/12 08:23:23;;;;;;;6.77;3.63;;;16.70;99.90;;;;;;5132902;27;20280;-61
2022/05/12 08:25:51;;;;;;;6.20;3.27;;;16.80;8.20;;;;;;5132887;27;20248;-59
2022/05/12 08:28:21;;;;;;;5.37;3.43;;;17.00;7.90;;;;;;5132735;27;20239;-61
2022/05/12 08:30:49;;;;;;;6.43;3.40;;;17.20;99.90;;;;;;5133048;27;20223;-61
2022/05/12 08:33:16;;;;;;;5.03;3.33;;;17.10;1.00;;;;;;5132834;27;20222;-61
2022/05/12 08:35:44;;;;;;;7.40;4.87;;;17.10;1.00;;;;;;5132719;27;20223;-62
2022/05/12 08:38:12;;;;;;;9.10;4.23;;;16.70;1.00;;;;;;5132327;27;20207;-60
2022/05/12 08:40:48;;;;;;;7.13;4.50;;;16.40;1.00;;;;;;5132822;27;20667;-63
2022/05/12 08:43:18;;;;;;;5.90;5.00;;;16.50;1.00;;;;;;5133239;27;20619;-62
2022/05/12 08:45:47;;;;;;;6.13;4.37;;;16.50;1.00;;;;;;5132372;27;20228;-61
2022/05/12 08:48:16;;;;;;;8.10;5.00;;;16.60;99.90;;;;;;5132476;27;20741;-60
2022/05/12 08:50:43;;;;;;;6.70;4.37;;;16.80;1.00;;;;;;5131942;27;20325;-62
2022/05/12 08:53:14;;;;;;;7.43;4.50;;;17.00;1.00;;;;;;5133296;27;20214;-65
2022/05/12 08:55:47;;;;;;;6.87;4.80;;;16.90;1.00;;;;;;5132176;27;20230;-64
2022/05/12 08:58:21;;;;;;;10.97;5.00;;;16.80;1.00;;;;;;5132382;27;20311;-64
2022/05/12 09:00:59;;;;;;;5.40;4.37;;;17.10;1.00;;;;;;5132720;27;20278;-61
2022/05/12 09:03:34;;;;;;;7.13;4.23;;;17.40;1.00;;;;;;5132141;27;20206;-63
2022/05/12 09:06:06;;;;;;;6.60;4.30;;;17.30;99.90;;;;;;5132228;27;20282;-64
2022/05/12 09:08:38;;;;;;;6.50;4.63;;;17.40;99.90;;;;;;5132250;27;20252;-63
2022/05/12 09:11:11;;;;;;;6.20;3.73;;;17.40;99.90;;;;;;5132197;27;20262;-63
2022/05/12 09:13:44;;;;;;;7.63;3.80;;;17.50;99.90;;;;;;5132602;27;20242;-61
2022/05/12 09:16:19;;;;;;;7.70;4.70;;;17.50;99.90;;;;;;5131712;27;20218;-61
2022/05/12 09:18:46;;;;;;;6.60;4.37;;;17.10;99.90;;;;;;5132692;27;20202;-62
2022/05/12 09:21:17;;;;;;;7.50;4.53;;;17.10;99.90;;;;;;5132139;27;20888;-63
2022/05/12 09:23:44;;;;;;;7.13;4.60;;;17.40;99.90;;;;;;5132187;27;20287;-61
2022/05/12 09:26:35;;;;;;;7.73;4.10;;;17.60;99.90;;;;;;5131420;27;20199;-61
2022/05/12 09:29:18;;;;;;;7.73;4.63;;;17.70;99.90;;;;;;5132717;27;20260;-63
2022/05/12 09:31:48;;;;;;;8.80;3.87;;;18.10;99.90;;;;;;5132100;27;20223;-63
2022/05/12 09:34:23;;;;;;;6.43;3.87;;;18.30;99.90;;;;;;5131824;27;20202;-61
2022/05/12 09:36:51;;;;;;;7.40;3.70;;;18.40;99.90;;;;;;5131257;27;20219;-62
2022/05/12 09:39:36;;;;;;;4.97;3.63;;;18.30;99.90;;;;;;5131951;27;20206;-66
2022/05/12 09:42:05;;;;;;;7.40;3.93;;;18.30;99.90;;;;;;5132247;27;20245;-63
2022/05/12 09:44:33;;;;;;;7.87;5.73;;;18.40;99.90;;;;;;5131609;27;20207;-62
2022/05/12 09:47:06;;;;;;;6.33;4.17;;;18.50;99.90;;;;;;5131911;27;20203;-62
2022/05/12 09:49:35;;;;;;;6.93;3.90;;;18.60;99.90;;;;;;5132059;27;20199;-60
2022/05/12 09:52:31;;;;;;;5.50;3.70;;;18.40;99.90;;;;;;5131952;27;20219;-60
2022/05/12 09:55:17;;;;;;;6.77;4.27;;;18.60;99.90;;;;;;5124671;27;20230;-60
2022/05/12 09:57:50;;;;;;;7.07;4.20;;;18.50;99.90;;;;;;5131279;27;20848;-60
2022/05/12 10:00:37;;;;;;;6.30;4.20;;;18.40;99.90;;;;;;5131895;27;20661;-62
2022/05/12 10:09:00;;;;;;;6.80;4.47;;;17.60;99.90;;;;;;5131982;27;20247;-62
2022/05/12 10:11:30;;;;;;;8.93;3.67;;;17.30;99.90;;;;;;5131636;27;20593;-63
2022/05/12 10:14:01;;;;;;;7.53;4.37;;;17.50;99.90;;;;;;5131373;27;20203;-63
2022/05/12 10:16:31;;;;;;;5.83;4.40;;;17.50;99.90;;;;;;5131380;27;20245;-62
2022/05/12 10:19:04;;;;;;;8.93;4.80;;;17.70;99.90;;;;;;5131855;27;20745;-62
2022/05/12 10:21:38;;;;;;;6.27;4.23;;;17.80;99.90;;;;;;5131624;27;20735;-62
2022/05/12 10:24:19;;;;;;;5.83;4.30;;;17.70;99.90;;;;;;5131301;27;20247;-62
2022/05/12 10:26:51;;;;;;;7.07;4.10;;;17.60;99.90;;;;;;5131270;27;20199;-63
2022/05/12 10:29:28;;;;;;;7.27;4.00;;;17.80;99.90;;;;;;5132094;27;20202;-63
2022/05/12 10:32:03;;;;;;;5.00;3.63;;;18.00;99.90;;;;;;5131498;27;20283;-60
2022/05/12 10:34:45;;;;;;;5.30;3.10;;;18.20;99.90;;;;;;5131408;27;20252;-61
2022/05/12 10:37:27;;;;;;;5.03;3.40;;;18.60;99.90;;;;;;5130901;27;20222;-60
2022/05/12 10:40:02;;;;;;;6.00;3.87;;;18.90;99.90;;;;;;5111489;28;20207;-61
2022/05/12 10:42:37;;;;;;;4.70;3.13;;;19.30;99.90;;;;;;5110837;28;21031;-60
2022/05/12 10:45:17;;;;;;;7.00;3.40;;;19.40;99.90;;;;;;5110270;28;20198;-61
2022/05/12 10:48:17;;;;;;;4.83;3.00;;;19.50;99.90;;;;;;5113334;28;20202;-61
2022/05/12 10:50:51;;;;;;;5.63;2.80;;;19.40;99.90;;;;;;5112839;27;20224;-62
2022/05/12 10:53:25;;;;;;;3.87;2.60;;;19.40;99.90;;;;;;5114690;28;20202;-62
2022/05/12 10:56:03;;;;;;;4.03;2.33;;;19.30;99.90;;;;;;5125262;27;20571;-63
2022/05/12 10:58:37;;;;;;;4.23;2.80;;;19.10;99.90;;;;;;5135011;27;20715;-61
2022/05/12 11:01:12;;;;;;;4.37;2.90;;;18.70;99.90;;;;;;5134983;27;20287;-61
2022/05/12 11:03:42;;;;;;;3.97;2.80;;;18.90;99.90;;;;;;5135311;27;20217;-60
2022/05/12 11:06:15;;;;;;;3.97;2.67;;;18.90;99.90;;;;;;5134339;27;20199;-62
2022/05/12 11:08:46;;;;;;;4.20;2.60;;;18.70;99.90;;;;;;5135435;27;20613;-61
2022/05/12 11:11:17;;;;;;;3.77;2.80;;;18.80;99.90;;;;;;5135155;27;20258;-62
2022/05/12 11:13:50;;;;;;;4.30;2.30;;;18.80;99.90;;;;;;5134549;27;20199;-62
2022/05/12 11:16:19;;;;;;;4.47;2.33;;;18.80;99.90;;;;;;5133913;27;20209;-62
2022/05/12 11:19:03;;;;;;;3.50;2.47;;;18.70;99.90;;;;;;5135231;27;20673;-61
2022/05/12 11:21:37;;;;;;;3.53;2.57;;;18.50;99.90;;;;;;5135151;27;20229;-61
2022/05/12 11:24:21;;;;;;;5.37;3.00;;;18.60;99.90;;;;;;5135840;27;20203;-61
2022/05/12 11:27:03;;;;;;;5.67;3.30;;;18.90;99.90;;;;;;5133859;27;20649;-63
2022/05/12 11:29:44;;;;;;;4.70;2.77;;;19.10;99.90;;;;;;5135044;27;20255;-64
2022/05/12 11:32:28;;;;;;;7.77;3.23;;;19.30;99.90;;;;;;5133906;27;20714;-63
2022/05/12 11:34:59;;;;;;;6.27;3.00;;;19.50;99.90;;;;;;5134098;27;20214;-62
2022/05/12 11:37:34;;;;;;;4.83;2.90;;;19.60;99.90;;;;;;5133973;27;20222;-63
2022/05/12 11:40:03;;;;;;;11.20;3.00;;;19.60;99.90;;;;;;5134339;27;20637;-64
2022/05/12 11:44:23;;;;;;;7.87;2.80;;;19.70;99.90;;;;;;5133992;27;20226;-63
2022/05/12 11:45:35;;;;;;;11.83;2.80;;;19.60;99.90;;;;;;5133730;27;20202;-63
2022/05/12 11:48:18;;;;;;;7.13;2.80;;;19.70;99.90;;;;;;5133825;27;20194;-61
2022/05/12 11:51:10;;;;;;;4.50;2.53;;;19.80;99.90;;;;;;5133895;27;20222;-64
2022/05/12 11:53:53;;;;;;;5.47;2.53;;;20.10;99.90;;;;;;5133752;27;20210;-62
2022/05/12 11:56:52;;;;;;;5.27;2.53;;;20.20;99.90;;;;;;5133296;27;20213;-63
2022/05/12 11:59:48;;;;;;;2.53;1.97;;;20.20;99.90;;;;;;5133467;27;20692;-63
2022/05/12 12:02:45;;;;;;;3.40;1.80;;;20.30;99.90;;;;;;5133665;27;20227;-63
2022/05/12 12:05:36;;;;;;;6.70;2.57;;;20.40;99.90;;;;;;5133089;27;20700;-63
2022/05/12 12:08:07;;;;;;;5.23;2.70;;;20.40;99.90;;;;;;5133259;27;20199;-64
2022/05/12 12:10:39;;;;;;;5.30;2.83;;;20.40;99.90;;;;;;5133446;27;20231;-64
2022/05/12 12:13:33;;;;;;;4.67;1.93;;;20.30;99.90;;;;;;5133445;27;20247;-64
2022/05/12 12:16:09;;;;;;;3.23;1.80;;;20.20;99.90;;;;;;5133014;27;20230;-64
2022/05/12 12:19:03;;;;;;;4.73;1.73;;;20.40;99.90;;;;;;5132858;27;20618;-64
2022/05/12 12:21:49;;;;;;;3.17;1.80;;;20.50;99.90;;;;;;5133704;27;20234;-63
2022/05/12 12:24:43;;;;;;;6.30;2.20;;;20.70;99.90;;;;;;5132929;27;20576;-62
2022/05/12 12:31:22;;;;;;;4.37;1.97;;;20.70;99.90;;;;;;5131173;27;20226;-62
2022/05/12 12:34:09;;;;;;;2.97;1.93;;;20.90;99.90;;;;;;5133312;27;20203;-62
2022/05/12 12:37:05;;;;;;;3.77;2.07;;;20.90;99.90;;;;;;5132127;27;20198;-64
2022/05/12 12:39:47;;;;;;;5.93;2.30;;;20.70;99.90;;;;;;5133003;27;20641;-63
2022/05/12 12:42:39;;;;;;;5.23;2.10;;;20.60;99.90;;;;;;5132542;27;20863;-63
2022/05/12 12:45:10;;;;;;;5.50;2.40;;;20.60;99.90;;;;;;5132599;27;20199;-65
2022/05/12 12:47:49;;;;;;;3.43;2.00;;;20.50;99.90;;;;;;5132311;27;20255;-62
2022/05/12 12:50:41;;;;;;;11.10;2.50;;;20.30;99.90;;;;;;5132417;27;20661;-64
2022/05/12 12:53:11;;;;;;;6.10;2.60;;;20.10;99.90;;;;;;5130389;27;20230;-65
2022/05/12 12:58:36;;;;;;;5.70;2.50;;;20.10;99.90;;;;;;5132160;27;20230;-64
2022/05/12 13:01:09;;;;;;;5.37;2.50;;;20.20;99.90;;;;;;5132502;27;20278;-61
2022/05/12 13:03:39;;;;;;;3.50;2.30;;;20.20;99.90;;;;;;5132812;27;20241;-63
2022/05/12 13:06:08;;;;;;;8.60;2.13;;;20.40;99.90;;;;;;5131487;27;20207;-60
2022/05/12 13:08:34;;;;;;;8.83;2.50;;;20.40;99.90;;;;;;5132800;27;20243;-62
2022/05/12 13:11:06;;;;;;;3.67;2.10;;;20.40;99.90;;;;;;5131288;27;20709;-65
2022/05/12 13:13:47;;;;;;;3.87;2.20;;;20.50;99.90;;;;;;5132794;27;20207;-60
2022/05/12 13:16:17;;;;;;;3.90;1.93;;;20.60;99.90;;;;;;5132097;27;20610;-61
2022/05/12 13:18:48;;;;;;;4.87;2.00;;;20.60;99.90;;;;;;5132187;27;20219;-61
2022/05/12 13:21:21;;;;;;;4.83;2.00;;;20.50;99.90;;;;;;5132281;27;20232;-61
2022/05/12 13:23:59;;;;;;;4.27;1.70;;;20.40;99.90;;;;;;5132367;27;20205;-61
2022/05/12 13:26:26;;;;;;;3.37;1.50;;;20.50;99.90;;;;;;5131650;27;20211;-63
2022/05/12 13:28:53;;;;;;;4.93;1.90;;;20.60;99.90;;;;;;5132167;27;20206;-62
2022/05/12 13:31:25;;;;;;;4.17;2.30;;;20.80;99.90;;;;;;5132243;27;20227;-62